sensor_id;sensor_type;location;lat;lon;timestamp;P1;durP1;ratioP1;P2;durP2;ratioP2
69573;SDS011;62840;52.366;5.980;2023-03-01T00:01:57;5.53;;;2.10;;
69573;SDS011;62840;52.366;5.980;2023-03-01T00:04:30;4.53;;;2.00;;
69573;SDS011;62840;52.366;5.980;2023-03-01T00:07:13;4.80;;;2.17;;
69573;SDS011;62840;52.366;5.980;2023-03-01T00:09:55;6.93;;;2.22;;
69573;SDS011;62840;52.366;5.980;2023-03-01T00:12:29;4.72;;;2.00;;
69573;SDS011;62840;52.366;5.980;2023-03-01T00:14:59;4.97;;;2.00;;
69573;SDS011;62840;52.366;5.980;2023-03-01T00:17:40;4.23;;;2.03;;
69573;SDS011;62840;52.366;5.980;2023-03-01T00:20:14;4.57;;;2.30;;
69573;SDS011;62840;52.366;5.980;2023-03-01T00:22:48;5.90;;;2.20;;
69573;SDS011;62840;52.366;5.980;2023-03-01T00:25:27;4.50;;;2.00;;
69573;SDS011;62840;52.366;5.980;2023-03-01T00:27:56;5.35;;;2.10;;
69573;SDS011;62840;52.366;5.980;2023-03-01T00:30:23;4.67;;;1.83;;
69573;SDS011;62840;52.366;5.980;2023-03-01T00:32:58;5.43;;;2.08;;
69573;SDS011;62840;52.366;5.980;2023-03-01T00:35:36;4.68;;;2.00;;
69573;SDS011;62840;52.366;5.980;2023-03-01T00:38:12;5.43;;;2.20;;
69573;SDS011;62840;52.366;5.980;2023-03-01T00:40:44;4.88;;;2.17;;
69573;SDS011;62840;52.366;5.980;2023-03-01T00:43:16;4.30;;;1.87;;
69573;SDS011;62840;52.366;5.980;2023-03-01T00:45:55;5.35;;;2.33;;
69573;SDS011;62840;52.366;5.980;2023-03-01T00:48:35;5.20;;;2.03;;
69573;SDS011;62840;52.366;5.980;2023-03-01T00:51:20;5.38;;;2.60;;
69573;SDS011;62840;52.366;5.980;2023-03-01T00:54:08;4.80;;;2.72;;
69573;SDS011;62840;52.366;5.980;2023-03-01T00:56:39;6.17;;;3.10;;
69573;SDS011;62840;52.366;5.980;2023-03-01T00:59:11;5.70;;;2.78;;
69573;SDS011;62840;52.366;5.980;2023-03-01T01:01:54;5.00;;;2.22;;
69573;SDS011;62840;52.366;5.980;2023-03-01T01:04:39;5.88;;;2.58;;
69573;SDS011;62840;52.366;5.980;2023-03-01T01:07:23;5.45;;;2.90;;
69573;SDS011;62840;52.366;5.980;2023-03-01T01:10:01;7.07;;;3.60;;
69573;SDS011;62840;52.366;5.980;2023-03-01T01:12:43;7.93;;;3.15;;
69573;SDS011;62840;52.366;5.980;2023-03-01T01:18:10;6.93;;;3.30;;
69573;SDS011;62840;52.366;5.980;2023-03-01T01:20:41;6.60;;;3.45;;
69573;SDS011;62840;52.366;5.980;2023-03-01T01:23:12;9.90;;;4.07;;
69573;SDS011;62840;52.366;5.980;2023-03-01T01:25:45;9.98;;;4.28;;
69573;SDS011;62840;52.366;5.980;2023-03-01T01:28:15;9.20;;;4.38;;
69573;SDS011;62840;52.366;5.980;2023-03-01T01:30:52;6.18;;;3.72;;
69573;SDS011;62840;52.366;5.980;2023-03-01T01:33:27;8.95;;;4.07;;
69573;SDS011;62840;52.366;5.980;2023-03-01T01:36:03;7.93;;;4.07;;
69573;SDS011;62840;52.366;5.980;2023-03-01T01:38:36;7.35;;;3.65;;
69573;SDS011;62840;52.366;5.980;2023-03-01T01:41:17;7.30;;;3.67;;
69573;SDS011;62840;52.366;5.980;2023-03-01T01:43:48;7.95;;;3.92;;
69573;SDS011;62840;52.366;5.980;2023-03-01T01:46:44;8.43;;;3.83;;
69573;SDS011;62840;52.366;5.980;2023-03-01T01:49:29;8.37;;;3.83;;
69573;SDS011;62840;52.366;5.980;2023-03-01T01:52:14;8.38;;;4.35;;
69573;SDS011;62840;52.366;5.980;2023-03-01T01:54:53;8.00;;;3.67;;
69573;SDS011;62840;52.366;5.980;2023-03-01T01:57:48;7.93;;;4.15;;
69573;SDS011;62840;52.366;5.980;2023-03-01T02:00:33;8.43;;;4.50;;
69573;SDS011;62840;52.366;5.980;2023-03-01T02:03:10;9.63;;;4.27;;
69573;SDS011;62840;52.366;5.980;2023-03-01T02:05:45;8.48;;;4.38;;
69573;SDS011;62840;52.366;5.980;2023-03-01T02:08:26;10.13;;;3.80;;
69573;SDS011;62840;52.366;5.980;2023-03-01T02:10:55;9.05;;;3.90;;
69573;SDS011;62840;52.366;5.980;2023-03-01T02:13:23;8.48;;;4.20;;
69573;SDS011;62840;52.366;5.980;2023-03-01T02:15:49;8.37;;;4.17;;
69573;SDS011;62840;52.366;5.980;2023-03-01T02:18:23;7.78;;;3.85;;
69573;SDS011;62840;52.366;5.980;2023-03-01T02:20:57;7.65;;;3.97;;
69573;SDS011;62840;52.366;5.980;2023-03-01T02:23:40;9.23;;;3.83;;
69573;SDS011;62840;52.366;5.980;2023-03-01T02:26:09;8.18;;;4.10;;
69573;SDS011;62840;52.366;5.980;2023-03-01T02:28:48;8.63;;;3.83;;
69573;SDS011;62840;52.366;5.980;2023-03-01T02:31:17;8.10;;;3.88;;
69573;SDS011;62840;52.366;5.980;2023-03-01T02:33:45;8.07;;;4.20;;
69573;SDS011;62840;52.366;5.980;2023-03-01T02:36:13;8.77;;;4.03;;
69573;SDS011;62840;52.366;5.980;2023-03-01T02:38:44;7.47;;;3.83;;
69573;SDS011;62840;52.366;5.980;2023-03-01T02:41:13;7.43;;;4.53;;
69573;SDS011;62840;52.366;5.980;2023-03-01T02:43:42;8.80;;;3.60;;
69573;SDS011;62840;52.366;5.980;2023-03-01T02:46:16;6.53;;;3.88;;
69573;SDS011;62840;52.366;5.980;2023-03-01T02:48:46;9.30;;;3.83;;
69573;SDS011;62840;52.366;5.980;2023-03-01T02:51:23;6.80;;;3.55;;
69573;SDS011;62840;52.366;5.980;2023-03-01T02:54:13;8.00;;;3.50;;
69573;SDS011;62840;52.366;5.980;2023-03-01T02:56:49;7.32;;;3.67;;
69573;SDS011;62840;52.366;5.980;2023-03-01T02:59:16;7.72;;;3.90;;
69573;SDS011;62840;52.366;5.980;2023-03-01T03:01:49;7.18;;;3.88;;
69573;SDS011;62840;52.366;5.980;2023-03-01T03:04:16;10.10;;;4.00;;
69573;SDS011;62840;52.366;5.980;2023-03-01T03:06:44;8.10;;;3.80;;
69573;SDS011;62840;52.366;5.980;2023-03-01T03:09:13;9.52;;;3.95;;
69573;SDS011;62840;52.366;5.980;2023-03-01T03:11:41;7.78;;;4.05;;
69573;SDS011;62840;52.366;5.980;2023-03-01T03:14:12;8.25;;;3.47;;
69573;SDS011;62840;52.366;5.980;2023-03-01T03:16:42;7.45;;;3.40;;
69573;SDS011;62840;52.366;5.980;2023-03-01T03:19:13;6.70;;;3.40;;
69573;SDS011;62840;52.366;5.980;2023-03-01T03:21:39;7.88;;;3.67;;
69573;SDS011;62840;52.366;5.980;2023-03-01T03:24:07;8.27;;;4.30;;
69573;SDS011;62840;52.366;5.980;2023-03-01T03:26:36;7.03;;;3.35;;
69573;SDS011;62840;52.366;5.980;2023-03-01T03:29:02;8.32;;;3.55;;
69573;SDS011;62840;52.366;5.980;2023-03-01T03:31:31;9.77;;;3.57;;
69573;SDS011;62840;52.366;5.980;2023-03-01T03:33:57;6.78;;;3.88;;
69573;SDS011;62840;52.366;5.980;2023-03-01T03:36:27;7.65;;;3.80;;
69573;SDS011;62840;52.366;5.980;2023-03-01T03:38:53;8.50;;;4.00;;
69573;SDS011;62840;52.366;5.980;2023-03-01T03:41:19;7.32;;;3.80;;
69573;SDS011;62840;52.366;5.980;2023-03-01T03:43:48;7.28;;;3.65;;
69573;SDS011;62840;52.366;5.980;2023-03-01T03:46:13;7.20;;;3.90;;
69573;SDS011;62840;52.366;5.980;2023-03-01T03:48:40;8.00;;;3.85;;
69573;SDS011;62840;52.366;5.980;2023-03-01T03:51:09;7.03;;;3.28;;
69573;SDS011;62840;52.366;5.980;2023-03-01T03:53:50;8.77;;;3.83;;
69573;SDS011;62840;52.366;5.980;2023-03-01T03:56:16;8.67;;;3.80;;
69573;SDS011;62840;52.366;5.980;2023-03-01T03:58:42;14.38;;;4.22;;
69573;SDS011;62840;52.366;5.980;2023-03-01T04:01:13;8.88;;;3.90;;
69573;SDS011;62840;52.366;5.980;2023-03-01T04:03:42;7.72;;;4.25;;
69573;SDS011;62840;52.366;5.980;2023-03-01T04:06:08;9.87;;;4.30;;
69573;SDS011;62840;52.366;5.980;2023-03-01T04:08:34;10.27;;;4.07;;
69573;SDS011;62840;52.366;5.980;2023-03-01T04:11:03;7.40;;;4.10;;
69573;SDS011;62840;52.366;5.980;2023-03-01T04:13:30;9.70;;;4.20;;
69573;SDS011;62840;52.366;5.980;2023-03-01T04:15:55;9.40;;;4.47;;
69573;SDS011;62840;52.366;5.980;2023-03-01T04:18:23;8.53;;;4.37;;
69573;SDS011;62840;52.366;5.980;2023-03-01T04:20:50;8.13;;;3.90;;
69573;SDS011;62840;52.366;5.980;2023-03-01T04:23:17;7.22;;;3.97;;
69573;SDS011;62840;52.366;5.980;2023-03-01T04:25:46;7.93;;;4.45;;
69573;SDS011;62840;52.366;5.980;2023-03-01T04:28:38;8.90;;;4.37;;
69573;SDS011;62840;52.366;5.980;2023-03-01T04:31:06;9.65;;;3.92;;
69573;SDS011;62840;52.366;5.980;2023-03-01T04:33:35;9.80;;;4.72;;
69573;SDS011;62840;52.366;5.980;2023-03-01T04:36:01;10.18;;;5.07;;
69573;SDS011;62840;52.366;5.980;2023-03-01T04:38:27;9.77;;;4.73;;
69573;SDS011;62840;52.366;5.980;2023-03-01T04:40:57;11.82;;;5.30;;
69573;SDS011;62840;52.366;5.980;2023-03-01T04:43:25;9.75;;;4.78;;
69573;SDS011;62840;52.366;5.980;2023-03-01T04:45:51;10.60;;;5.25;;
69573;SDS011;62840;52.366;5.980;2023-03-01T04:48:17;11.47;;;5.23;;
69573;SDS011;62840;52.366;5.980;2023-03-01T04:50:42;11.70;;;5.32;;
69573;SDS011;62840;52.366;5.980;2023-03-01T04:53:08;9.10;;;5.23;;
69573;SDS011;62840;52.366;5.980;2023-03-01T04:55:34;12.65;;;5.28;;
69573;SDS011;62840;52.366;5.980;2023-03-01T04:58:00;14.20;;;6.03;;
69573;SDS011;62840;52.366;5.980;2023-03-01T05:00:28;11.57;;;5.35;;
69573;SDS011;62840;52.366;5.980;2023-03-01T05:02:56;12.30;;;5.25;;
69573;SDS011;62840;52.366;5.980;2023-03-01T05:05:29;13.80;;;5.50;;
69573;SDS011;62840;52.366;5.980;2023-03-01T05:07:58;11.65;;;5.20;;
69573;SDS011;62840;52.366;5.980;2023-03-01T05:10:28;13.23;;;5.80;;
69573;SDS011;62840;52.366;5.980;2023-03-01T05:12:56;12.68;;;5.57;;
69573;SDS011;62840;52.366;5.980;2023-03-01T05:15:23;10.80;;;4.90;;
69573;SDS011;62840;52.366;5.980;2023-03-01T05:17:52;11.90;;;4.97;;
69573;SDS011;62840;52.366;5.980;2023-03-01T05:20:18;13.40;;;5.65;;
69573;SDS011;62840;52.366;5.980;2023-03-01T05:22:45;12.77;;;5.40;;
69573;SDS011;62840;52.366;5.980;2023-03-01T05:25:11;11.23;;;5.45;;
69573;SDS011;62840;52.366;5.980;2023-03-01T05:27:38;11.63;;;5.63;;
69573;SDS011;62840;52.366;5.980;2023-03-01T05:30:04;11.10;;;5.35;;
69573;SDS011;62840;52.366;5.980;2023-03-01T05:32:32;10.00;;;5.07;;
69573;SDS011;62840;52.366;5.980;2023-03-01T05:35:01;13.50;;;5.53;;
69573;SDS011;62840;52.366;5.980;2023-03-01T05:37:28;11.25;;;4.88;;
69573;SDS011;62840;52.366;5.980;2023-03-01T05:39:54;13.00;;;5.90;;
69573;SDS011;62840;52.366;5.980;2023-03-01T05:42:19;11.57;;;5.87;;
69573;SDS011;62840;52.366;5.980;2023-03-01T05:44:48;13.00;;;5.90;;
69573;SDS011;62840;52.366;5.980;2023-03-01T05:47:14;10.70;;;4.63;;
69573;SDS011;62840;52.366;5.980;2023-03-01T05:49:42;10.83;;;5.63;;
69573;SDS011;62840;52.366;5.980;2023-03-01T05:52:11;12.40;;;4.97;;
69573;SDS011;62840;52.366;5.980;2023-03-01T05:54:37;11.15;;;5.88;;
69573;SDS011;62840;52.366;5.980;2023-03-01T05:57:03;12.17;;;5.97;;
69573;SDS011;62840;52.366;5.980;2023-03-01T05:59:35;13.52;;;5.97;;
69573;SDS011;62840;52.366;5.980;2023-03-01T06:02:05;11.68;;;5.70;;
69573;SDS011;62840;52.366;5.980;2023-03-01T06:04:31;13.13;;;5.60;;
69573;SDS011;62840;52.366;5.980;2023-03-01T06:06:57;11.93;;;5.43;;
69573;SDS011;62840;52.366;5.980;2023-03-01T06:09:26;13.90;;;6.13;;
69573;SDS011;62840;52.366;5.980;2023-03-01T06:11:52;12.32;;;6.25;;
69573;SDS011;62840;52.366;5.980;2023-03-01T06:14:21;13.77;;;5.47;;
69573;SDS011;62840;52.366;5.980;2023-03-01T06:16:47;11.60;;;5.63;;
69573;SDS011;62840;52.366;5.980;2023-03-01T06:19:20;13.85;;;6.05;;
69573;SDS011;62840;52.366;5.980;2023-03-01T06:22:02;11.65;;;5.10;;
69573;SDS011;62840;52.366;5.980;2023-03-01T06:24:47;14.20;;;5.80;;
69573;SDS011;62840;52.366;5.980;2023-03-01T06:27:15;13.77;;;5.80;;
69573;SDS011;62840;52.366;5.980;2023-03-01T06:29:47;15.57;;;6.43;;
69573;SDS011;62840;52.366;5.980;2023-03-01T06:32:18;15.80;;;6.40;;
69573;SDS011;62840;52.366;5.980;2023-03-01T06:34:52;11.77;;;5.55;;
69573;SDS011;62840;52.366;5.980;2023-03-01T06:37:23;11.37;;;5.90;;
69573;SDS011;62840;52.366;5.980;2023-03-01T06:40:09;13.45;;;5.80;;
69573;SDS011;62840;52.366;5.980;2023-03-01T06:42:42;14.55;;;6.30;;
69573;SDS011;62840;52.366;5.980;2023-03-01T06:45:17;14.70;;;6.28;;
69573;SDS011;62840;52.366;5.980;2023-03-01T06:47:50;13.70;;;6.10;;
69573;SDS011;62840;52.366;5.980;2023-03-01T06:50:32;14.63;;;6.00;;
69573;SDS011;62840;52.366;5.980;2023-03-01T06:53:13;14.40;;;6.70;;
69573;SDS011;62840;52.366;5.980;2023-03-01T06:55:45;12.63;;;6.22;;
69573;SDS011;62840;52.366;5.980;2023-03-01T06:58:20;17.63;;;5.78;;
69573;SDS011;62840;52.366;5.980;2023-03-01T07:00:53;16.00;;;6.70;;
69573;SDS011;62840;52.366;5.980;2023-03-01T07:03:26;13.83;;;6.67;;
69573;SDS011;62840;52.366;5.980;2023-03-01T07:06:07;16.02;;;6.55;;
69573;SDS011;62840;52.366;5.980;2023-03-01T07:08:42;14.82;;;6.75;;
69573;SDS011;62840;52.366;5.980;2023-03-01T07:11:26;13.82;;;6.32;;
69573;SDS011;62840;52.366;5.980;2023-03-01T07:13:54;15.63;;;6.70;;
69573;SDS011;62840;52.366;5.980;2023-03-01T07:16:29;12.63;;;5.60;;
69573;SDS011;62840;52.366;5.980;2023-03-01T07:18:56;10.68;;;5.50;;
69573;SDS011;62840;52.366;5.980;2023-03-01T07:21:34;12.80;;;6.07;;
69573;SDS011;62840;52.366;5.980;2023-03-01T07:24:01;11.82;;;5.82;;
69573;SDS011;62840;52.366;5.980;2023-03-01T07:26:39;13.50;;;5.68;;
69573;SDS011;62840;52.366;5.980;2023-03-01T07:29:15;11.67;;;5.40;;
69573;SDS011;62840;52.366;5.980;2023-03-01T07:31:45;11.52;;;6.07;;
69573;SDS011;62840;52.366;5.980;2023-03-01T07:34:19;13.52;;;6.15;;
69573;SDS011;62840;52.366;5.980;2023-03-01T07:36:50;15.05;;;6.07;;
69573;SDS011;62840;52.366;5.980;2023-03-01T07:39:19;10.97;;;5.33;;
69573;SDS011;62840;52.366;5.980;2023-03-01T07:41:55;12.93;;;6.20;;
69573;SDS011;62840;52.366;5.980;2023-03-01T07:44:26;12.48;;;5.53;;
69573;SDS011;62840;52.366;5.980;2023-03-01T07:46:52;12.05;;;5.00;;
69573;SDS011;62840;52.366;5.980;2023-03-01T07:49:22;11.67;;;5.27;;
69573;SDS011;62840;52.366;5.980;2023-03-01T07:51:58;12.60;;;5.65;;
69573;SDS011;62840;52.366;5.980;2023-03-01T07:54:39;12.82;;;6.07;;
69573;SDS011;62840;52.366;5.980;2023-03-01T07:57:15;11.00;;;5.33;;
69573;SDS011;62840;52.366;5.980;2023-03-01T07:59:46;12.40;;;6.03;;
69573;SDS011;62840;52.366;5.980;2023-03-01T08:02:13;13.23;;;5.63;;
69573;SDS011;62840;52.366;5.980;2023-03-01T08:04:49;12.45;;;5.90;;
69573;SDS011;62840;52.366;5.980;2023-03-01T08:07:16;13.77;;;6.07;;
69573;SDS011;62840;52.366;5.980;2023-03-01T08:09:44;12.80;;;5.95;;
69573;SDS011;62840;52.366;5.980;2023-03-01T08:12:13;12.23;;;5.93;;
69573;SDS011;62840;52.366;5.980;2023-03-01T08:14:42;13.02;;;5.68;;
69573;SDS011;62840;52.366;5.980;2023-03-01T08:17:17;11.97;;;5.43;;
69573;SDS011;62840;52.366;5.980;2023-03-01T08:19:44;12.75;;;5.55;;
69573;SDS011;62840;52.366;5.980;2023-03-01T08:22:10;15.15;;;5.47;;
69573;SDS011;62840;52.366;5.980;2023-03-01T08:24:36;11.65;;;5.30;;
69573;SDS011;62840;52.366;5.980;2023-03-01T08:27:04;14.65;;;5.80;;
69573;SDS011;62840;52.366;5.980;2023-03-01T08:29:37;12.23;;;5.53;;
69573;SDS011;62840;52.366;5.980;2023-03-01T08:32:05;11.70;;;5.15;;
69573;SDS011;62840;52.366;5.980;2023-03-01T08:34:38;12.88;;;6.10;;
69573;SDS011;62840;52.366;5.980;2023-03-01T08:37:11;13.10;;;5.43;;
69573;SDS011;62840;52.366;5.980;2023-03-01T08:39:40;13.93;;;6.55;;
69573;SDS011;62840;52.366;5.980;2023-03-01T08:44:57;12.48;;;5.63;;
69573;SDS011;62840;52.366;5.980;2023-03-01T08:47:26;12.52;;;6.13;;
69573;SDS011;62840;52.366;5.980;2023-03-01T08:50:02;14.68;;;6.13;;
69573;SDS011;62840;52.366;5.980;2023-03-01T08:52:31;12.73;;;5.68;;
69573;SDS011;62840;52.366;5.980;2023-03-01T08:55:00;10.37;;;5.43;;
69573;SDS011;62840;52.366;5.980;2023-03-01T08:57:26;12.07;;;5.20;;
69573;SDS011;62840;52.366;5.980;2023-03-01T08:59:59;9.75;;;5.40;;
69573;SDS011;62840;52.366;5.980;2023-03-01T09:02:27;10.85;;;5.03;;
69573;SDS011;62840;52.366;5.980;2023-03-01T09:04:55;10.73;;;4.77;;
69573;SDS011;62840;52.366;5.980;2023-03-01T09:07:31;9.18;;;4.60;;
69573;SDS011;62840;52.366;5.980;2023-03-01T09:10:42;10.85;;;5.28;;
69573;SDS011;62840;52.366;5.980;2023-03-01T09:12:52;9.25;;;4.78;;
69573;SDS011;62840;52.366;5.980;2023-03-01T09:15:24;10.93;;;5.00;;
69573;SDS011;62840;52.366;5.980;2023-03-01T09:18:15;8.87;;;4.87;;
69573;SDS011;62840;52.366;5.980;2023-03-01T09:20:48;8.15;;;4.47;;
69573;SDS011;62840;52.366;5.980;2023-03-01T09:23:30;9.55;;;4.63;;
69573;SDS011;62840;52.366;5.980;2023-03-01T09:26:05;10.13;;;4.90;;
69573;SDS011;62840;52.366;5.980;2023-03-01T09:28:37;9.45;;;4.88;;
69573;SDS011;62840;52.366;5.980;2023-03-01T09:31:08;10.40;;;4.60;;
69573;SDS011;62840;52.366;5.980;2023-03-01T09:33:35;7.90;;;3.78;;
69573;SDS011;62840;52.366;5.980;2023-03-01T09:36:09;8.75;;;4.18;;
69573;SDS011;62840;52.366;5.980;2023-03-01T09:38:47;9.55;;;3.67;;
69573;SDS011;62840;52.366;5.980;2023-03-01T09:41:31;8.40;;;4.18;;
69573;SDS011;62840;52.366;5.980;2023-03-01T09:44:27;9.97;;;3.23;;
69573;SDS011;62840;52.366;5.980;2023-03-01T09:47:16;7.80;;;3.28;;
69573;SDS011;62840;52.366;5.980;2023-03-01T09:49:47;9.23;;;4.38;;
69573;SDS011;62840;52.366;5.980;2023-03-01T09:52:44;7.53;;;3.33;;
69573;SDS011;62840;52.366;5.980;2023-03-01T09:55:25;7.55;;;3.80;;
69573;SDS011;62840;52.366;5.980;2023-03-01T09:58:18;7.77;;;3.40;;
69573;SDS011;62840;52.366;5.980;2023-03-01T10:01:04;7.18;;;3.42;;
69573;SDS011;62840;52.366;5.980;2023-03-01T10:07:13;9.23;;;3.70;;
69573;SDS011;62840;52.366;5.980;2023-03-01T10:09:55;8.30;;;3.38;;
69573;SDS011;62840;52.366;5.980;2023-03-01T10:12:33;9.80;;;3.80;;
69573;SDS011;62840;52.366;5.980;2023-03-01T10:15:14;7.65;;;3.80;;
69573;SDS011;62840;52.366;5.980;2023-03-01T10:17:55;8.82;;;3.92;;
69573;SDS011;62840;52.366;5.980;2023-03-01T10:20:30;7.10;;;2.80;;
69573;SDS011;62840;52.366;5.980;2023-03-01T10:23:13;6.25;;;3.08;;
69573;SDS011;62840;52.366;5.980;2023-03-01T10:25:45;7.20;;;3.57;;
69573;SDS011;62840;52.366;5.980;2023-03-01T10:28:31;6.68;;;3.10;;
69573;SDS011;62840;52.366;5.980;2023-03-01T10:31:19;8.68;;;2.85;;
69573;SDS011;62840;52.366;5.980;2023-03-01T10:33:52;5.10;;;2.33;;
69573;SDS011;62840;52.366;5.980;2023-03-01T10:36:28;6.20;;;2.40;;
69573;SDS011;62840;52.366;5.980;2023-03-01T10:39:19;5.83;;;2.17;;
69573;SDS011;62840;52.366;5.980;2023-03-01T10:44:50;6.40;;;2.03;;
69573;SDS011;62840;52.366;5.980;2023-03-01T10:47:20;7.07;;;2.75;;
69573;SDS011;62840;52.366;5.980;2023-03-01T10:50:00;4.43;;;1.73;;
69573;SDS011;62840;52.366;5.980;2023-03-01T10:52:55;5.20;;;2.20;;
69573;SDS011;62840;52.366;5.980;2023-03-01T10:55:31;6.18;;;2.20;;
69573;SDS011;62840;52.366;5.980;2023-03-01T10:58:11;5.70;;;2.38;;
69573;SDS011;62840;52.366;5.980;2023-03-01T11:00:52;5.88;;;2.42;;
69573;SDS011;62840;52.366;5.980;2023-03-01T11:03:31;4.43;;;2.10;;
69573;SDS011;62840;52.366;5.980;2023-03-01T11:06:05;5.77;;;2.43;;
69573;SDS011;62840;52.366;5.980;2023-03-01T11:08:51;6.65;;;2.42;;
69573;SDS011;62840;52.366;5.980;2023-03-01T11:11:25;5.38;;;2.42;;
69573;SDS011;62840;52.366;5.980;2023-03-01T11:14:03;5.32;;;2.30;;
69573;SDS011;62840;52.366;5.980;2023-03-01T11:16:44;5.75;;;2.60;;
69573;SDS011;62840;52.366;5.980;2023-03-01T11:19:33;6.37;;;2.77;;
69573;SDS011;62840;52.366;5.980;2023-03-01T11:22:03;6.57;;;2.10;;
69573;SDS011;62840;52.366;5.980;2023-03-01T11:24:43;5.68;;;2.67;;
69573;SDS011;62840;52.366;5.980;2023-03-01T11:27:16;6.65;;;2.63;;
69573;SDS011;62840;52.366;5.980;2023-03-01T11:29:55;6.95;;;2.90;;
69573;SDS011;62840;52.366;5.980;2023-03-01T11:32:34;5.83;;;2.23;;
69573;SDS011;62840;52.366;5.980;2023-03-01T11:35:13;7.80;;;2.80;;
69573;SDS011;62840;52.366;5.980;2023-03-01T11:37:50;6.85;;;3.00;;
69573;SDS011;62840;52.366;5.980;2023-03-01T11:40:35;5.57;;;2.95;;
69573;SDS011;62840;52.366;5.980;2023-03-01T11:43:14;6.47;;;2.63;;
69573;SDS011;62840;52.366;5.980;2023-03-01T11:45:54;5.67;;;2.60;;
69573;SDS011;62840;52.366;5.980;2023-03-01T11:49:08;6.30;;;2.97;;
69573;SDS011;62840;52.366;5.980;2023-03-01T11:51:59;7.18;;;3.03;;
69573;SDS011;62840;52.366;5.980;2023-03-01T11:54:44;5.38;;;2.55;;
69573;SDS011;62840;52.366;5.980;2023-03-01T11:57:31;7.38;;;3.17;;
69573;SDS011;62840;52.366;5.980;2023-03-01T12:00:30;6.67;;;2.60;;
69573;SDS011;62840;52.366;5.980;2023-03-01T12:03:33;5.93;;;2.38;;
69573;SDS011;62840;52.366;5.980;2023-03-01T12:06:37;6.63;;;3.08;;
69573;SDS011;62840;52.366;5.980;2023-03-01T12:09:35;6.95;;;2.80;;
69573;SDS011;62840;52.366;5.980;2023-03-01T12:12:31;5.95;;;2.97;;
69573;SDS011;62840;52.366;5.980;2023-03-01T12:15:21;6.07;;;2.60;;
69573;SDS011;62840;52.366;5.980;2023-03-01T12:21:22;6.97;;;3.67;;
69573;SDS011;62840;52.366;5.980;2023-03-01T12:24:14;5.32;;;2.33;;
69573;SDS011;62840;52.366;5.980;2023-03-01T12:30:27;6.00;;;2.50;;
69573;SDS011;62840;52.366;5.980;2023-03-01T12:33:23;6.63;;;2.80;;
69573;SDS011;62840;52.366;5.980;2023-03-01T12:36:15;5.85;;;2.70;;
69573;SDS011;62840;52.366;5.980;2023-03-01T12:39:10;5.55;;;2.20;;
69573;SDS011;62840;52.366;5.980;2023-03-01T12:42:16;5.43;;;2.58;;
69573;SDS011;62840;52.366;5.980;2023-03-01T12:45:05;5.77;;;2.47;;
69573;SDS011;62840;52.366;5.980;2023-03-01T12:48:03;5.38;;;2.95;;
69573;SDS011;62840;52.366;5.980;2023-03-01T12:50:50;6.47;;;3.08;;
69573;SDS011;62840;52.366;5.980;2023-03-01T12:53:25;6.03;;;3.00;;
69573;SDS011;62840;52.366;5.980;2023-03-01T12:55:58;7.82;;;3.22;;
69573;SDS011;62840;52.366;5.980;2023-03-01T12:58:34;5.37;;;2.80;;
69573;SDS011;62840;52.366;5.980;2023-03-01T13:01:18;6.28;;;2.75;;
69573;SDS011;62840;52.366;5.980;2023-03-01T13:07:13;8.20;;;3.20;;
69573;SDS011;62840;52.366;5.980;2023-03-01T13:09:51;6.85;;;2.90;;
69573;SDS011;62840;52.366;5.980;2023-03-01T13:12:46;9.43;;;2.97;;
69573;SDS011;62840;52.366;5.980;2023-03-01T13:15:28;4.95;;;2.40;;
69573;SDS011;62840;52.366;5.980;2023-03-01T13:18:02;6.55;;;2.85;;
69573;SDS011;62840;52.366;5.980;2023-03-01T13:20:55;11.23;;;2.92;;
69573;SDS011;62840;52.366;5.980;2023-03-01T13:23:25;5.78;;;2.88;;
69573;SDS011;62840;52.366;5.980;2023-03-01T13:26:12;5.87;;;2.63;;
69573;SDS011;62840;52.366;5.980;2023-03-01T13:37:31;7.82;;;2.95;;
69573;SDS011;62840;52.366;5.980;2023-03-01T13:40:02;7.17;;;2.60;;
69573;SDS011;62840;52.366;5.980;2023-03-01T13:42:58;7.05;;;2.80;;
69573;SDS011;62840;52.366;5.980;2023-03-01T13:46:00;6.13;;;3.30;;
69573;SDS011;62840;52.366;5.980;2023-03-01T13:48:41;5.88;;;2.95;;
69573;SDS011;62840;52.366;5.980;2023-03-01T13:51:12;5.85;;;3.00;;
69573;SDS011;62840;52.366;5.980;2023-03-01T13:53:42;8.07;;;3.03;;
69573;SDS011;62840;52.366;5.980;2023-03-01T13:56:12;5.13;;;2.55;;
69573;SDS011;62840;52.366;5.980;2023-03-01T13:58:51;7.88;;;3.10;;
69573;SDS011;62840;52.366;5.980;2023-03-01T14:01:27;7.80;;;3.10;;
69573;SDS011;62840;52.366;5.980;2023-03-01T14:03:59;7.20;;;3.10;;
69573;SDS011;62840;52.366;5.980;2023-03-01T14:06:27;7.63;;;2.80;;
69573;SDS011;62840;52.366;5.980;2023-03-01T14:09:09;5.43;;;2.75;;
69573;SDS011;62840;52.366;5.980;2023-03-01T14:12:03;7.95;;;3.25;;
69573;SDS011;62840;52.366;5.980;2023-03-01T14:14:54;8.18;;;3.00;;
69573;SDS011;62840;52.366;5.980;2023-03-01T14:20:25;6.03;;;2.70;;
69573;SDS011;62840;52.366;5.980;2023-03-01T14:23:01;7.22;;;2.60;;
69573;SDS011;62840;52.366;5.980;2023-03-01T14:25:45;6.05;;;3.08;;
69573;SDS011;62840;52.366;5.980;2023-03-01T14:28:17;7.53;;;2.95;;
69573;SDS011;62840;52.366;5.980;2023-03-01T14:30:50;6.55;;;3.45;;
69573;SDS011;62840;52.366;5.980;2023-03-01T14:33:22;7.70;;;2.80;;
69573;SDS011;62840;52.366;5.980;2023-03-01T14:35:59;8.32;;;2.90;;
69573;SDS011;62840;52.366;5.980;2023-03-01T14:38:36;6.20;;;2.65;;
69573;SDS011;62840;52.366;5.980;2023-03-01T14:41:10;7.53;;;3.40;;
69573;SDS011;62840;52.366;5.980;2023-03-01T14:43:44;6.82;;;2.60;;
69573;SDS011;62840;52.366;5.980;2023-03-01T14:46:19;6.67;;;3.00;;
69573;SDS011;62840;52.366;5.980;2023-03-01T14:49:02;6.00;;;3.20;;
69573;SDS011;62840;52.366;5.980;2023-03-01T14:51:49;6.85;;;3.05;;
69573;SDS011;62840;52.366;5.980;2023-03-01T14:54:31;7.53;;;2.88;;
69573;SDS011;62840;52.366;5.980;2023-03-01T14:57:14;7.47;;;3.42;;
69573;SDS011;62840;52.366;5.980;2023-03-01T14:59:50;5.83;;;2.80;;
69573;SDS011;62840;52.366;5.980;2023-03-01T15:02:27;6.97;;;3.05;;
69573;SDS011;62840;52.366;5.980;2023-03-01T15:05:05;6.13;;;2.85;;
69573;SDS011;62840;52.366;5.980;2023-03-01T15:07:43;6.35;;;3.35;;
69573;SDS011;62840;52.366;5.980;2023-03-01T15:10:19;6.20;;;2.97;;
69573;SDS011;62840;52.366;5.980;2023-03-01T15:12:50;6.63;;;2.93;;
69573;SDS011;62840;52.366;5.980;2023-03-01T15:18:15;6.15;;;2.80;;
69573;SDS011;62840;52.366;5.980;2023-03-01T15:20:48;6.38;;;2.90;;
69573;SDS011;62840;52.366;5.980;2023-03-01T15:23:18;7.85;;;3.00;;
69573;SDS011;62840;52.366;5.980;2023-03-01T15:25:51;6.37;;;2.90;;
69573;SDS011;62840;52.366;5.980;2023-03-01T15:28:25;8.77;;;3.10;;
69573;SDS011;62840;52.366;5.980;2023-03-01T15:30:58;6.32;;;3.00;;
69573;SDS011;62840;52.366;5.980;2023-03-01T15:33:30;6.50;;;2.88;;
69573;SDS011;62840;52.366;5.980;2023-03-01T15:39:25;6.60;;;2.97;;
69573;SDS011;62840;52.366;5.980;2023-03-01T15:42:00;5.88;;;2.72;;
69573;SDS011;62840;52.366;5.980;2023-03-01T15:44:44;6.55;;;3.05;;
69573;SDS011;62840;52.366;5.980;2023-03-01T15:47:23;8.23;;;3.30;;
69573;SDS011;62840;52.366;5.980;2023-03-01T15:49:55;6.78;;;2.90;;
69573;SDS011;62840;52.366;5.980;2023-03-01T15:52:29;5.43;;;2.63;;
69573;SDS011;62840;52.366;5.980;2023-03-01T15:55:06;6.05;;;2.60;;
69573;SDS011;62840;52.366;5.980;2023-03-01T15:57:43;7.55;;;3.13;;
69573;SDS011;62840;52.366;5.980;2023-03-01T16:00:17;6.70;;;3.05;;
69573;SDS011;62840;52.366;5.980;2023-03-01T16:02:44;7.85;;;3.80;;
69573;SDS011;62840;52.366;5.980;2023-03-01T16:05:19;7.13;;;2.90;;
69573;SDS011;62840;52.366;5.980;2023-03-01T16:07:50;6.45;;;2.70;;
69573;SDS011;62840;52.366;5.980;2023-03-01T16:10:21;5.68;;;2.65;;
69573;SDS011;62840;52.366;5.980;2023-03-01T16:12:52;5.70;;;2.75;;